createdAt,value
2018-09-12T00:02:25.509Z,16.43
2018-09-12T00:04:55.605Z,16.60
2018-09-12T00:07:25.690Z,11.10
2018-09-12T00:09:55.776Z,8.80
2018-09-12T00:12:25.864Z,11.70
2018-09-12T00:14:55.956Z,10.70
2018-09-12T00:17:26.060Z,14.27
2018-09-12T00:19:56.200Z,11.50
2018-09-12T00:22:26.500Z,10.80
2018-09-12T00:24:56.632Z,9.10
2018-09-12T00:27:26.705Z,9.53
2018-09-12T00:29:56.775Z,8.37
2018-09-12T00:32:26.856Z,9.57
2018-09-12T00:34:56.936Z,10.00
2018-09-12T00:37:27.900Z,10.13
2018-09-12T00:39:57.996Z,8.33
2018-09-12T00:42:28.120Z,10.03
2018-09-12T00:44:58.192Z,11.43
2018-09-12T00:47:28.291Z,8.70
2018-09-12T00:49:58.409Z,8.60
2018-09-12T00:52:28.534Z,8.67
2018-09-12T00:54:58.627Z,8.60
2018-09-12T00:57:28.768Z,7.10
2018-09-12T00:59:58.895Z,7.60
2018-09-12T01:02:29.110Z,8.10
2018-09-12T01:04:59.221Z,9.43
2018-09-12T01:07:29.425Z,17.23
2018-09-12T01:09:59.531Z,9.17
2018-09-12T01:12:29.652Z,11.30
2018-09-12T01:14:59.818Z,13.23
2018-09-12T01:17:29.953Z,11.50
2018-09-12T01:20:00.148Z,11.87
2018-09-12T01:22:30.224Z,9.93
2018-09-12T01:25:00.285Z,9.90
2018-09-12T01:27:30.404Z,10.27
2018-09-12T01:30:00.563Z,9.00
2018-09-12T01:32:30.645Z,9.50
2018-09-12T01:35:01.023Z,8.03
2018-09-12T01:37:31.188Z,7.67
2018-09-12T01:40:01.294Z,8.43
2018-09-12T01:42:31.379Z,8.73
2018-09-12T01:45:01.449Z,8.20
2018-09-12T01:47:31.524Z,10.97
2018-09-12T01:50:01.653Z,9.47
2018-09-12T01:52:31.883Z,8.23
2018-09-12T01:55:02.024Z,9.83
2018-09-12T01:57:32.121Z,11.83
2018-09-12T02:00:02.216Z,7.27
2018-09-12T02:02:32.296Z,9.30
2018-09-12T02:05:02.409Z,9.17
2018-09-12T02:07:32.491Z,8.27
2018-09-12T02:10:02.620Z,7.63
2018-09-12T02:12:32.755Z,8.83
2018-09-12T02:15:02.990Z,8.50
2018-09-12T02:17:33.184Z,8.00
2018-09-12T02:20:03.497Z,8.30
2018-09-12T02:22:34.072Z,9.10
2018-09-12T02:25:04.229Z,7.43
2018-09-12T02:27:34.301Z,7.57
2018-09-12T02:30:04.525Z,10.47
2018-09-12T02:32:34.628Z,9.90
2018-09-12T02:35:04.836Z,7.43
2018-09-12T02:37:35.009Z,9.50
2018-09-12T02:40:05.936Z,9.53
2018-09-12T02:42:36.056Z,7.93
2018-09-12T02:45:06.716Z,10.17
2018-09-12T02:47:40.382Z,9.23
2018-09-12T02:50:13.567Z,8.57
2018-09-12T02:52:43.700Z,7.10
2018-09-12T02:55:14.156Z,9.53
2018-09-12T02:57:44.315Z,11.63
2018-09-12T03:00:14.430Z,8.37
2018-09-12T03:02:44.516Z,7.57
2018-09-12T03:05:16.704Z,7.73
2018-09-12T03:07:46.889Z,7.93
2018-09-12T03:10:16.948Z,8.17
2018-09-12T03:12:47.025Z,9.00
2018-09-12T03:15:17.128Z,10.00
2018-09-12T03:17:47.209Z,8.37
2018-09-12T03:20:17.291Z,11.00
2018-09-12T03:22:47.365Z,7.80
2018-09-12T03:25:17.452Z,8.23
2018-09-12T03:27:47.617Z,7.37
2018-09-12T03:30:17.687Z,7.80
2018-09-12T03:32:47.744Z,8.57
2018-09-12T03:35:17.824Z,9.60
2018-09-12T03:37:47.896Z,9.00
2018-09-12T03:40:17.981Z,8.13
2018-09-12T03:42:48.061Z,8.80
2018-09-12T03:45:18.232Z,7.90
2018-09-12T03:47:48.467Z,8.93
2018-09-12T03:50:18.540Z,9.13
2018-09-12T03:52:48.624Z,9.97
2018-09-12T03:55:18.730Z,7.80
2018-09-12T03:57:48.825Z,11.83
2018-09-12T04:00:18.906Z,8.30
2018-09-12T04:02:49.027Z,6.60
2018-09-12T04:05:19.080Z,7.43
2018-09-12T04:07:49.197Z,8.20
2018-09-12T04:10:19.272Z,7.07
2018-09-12T04:12:49.348Z,8.17
2018-09-12T04:15:19.445Z,7.57
2018-09-12T04:17:49.548Z,8.33
2018-09-12T04:20:19.617Z,7.57
2018-09-12T04:22:49.716Z,7.67
2018-09-12T04:25:19.801Z,7.63
2018-09-12T04:27:49.917Z,7.57
2018-09-12T04:30:20.014Z,8.00
2018-09-12T04:32:50.198Z,7.33
2018-09-12T04:35:20.317Z,9.13
2018-09-12T04:37:50.425Z,7.93
2018-09-12T04:40:20.491Z,8.30
2018-09-12T04:42:50.630Z,11.80
2018-09-12T04:45:20.685Z,11.37
2018-09-12T04:47:50.824Z,7.67
2018-09-12T04:50:20.904Z,8.03
2018-09-12T04:52:50.996Z,8.20
2018-09-12T04:55:21.137Z,8.13
2018-09-12T04:57:51.203Z,9.73
2018-09-12T05:00:21.292Z,7.63
2018-09-12T05:02:51.382Z,7.07
2018-09-12T05:05:21.465Z,8.10
2018-09-12T05:07:51.576Z,10.10
2018-09-12T05:10:21.707Z,8.70
2018-09-12T05:12:51.785Z,7.27
2018-09-12T05:15:21.865Z,7.33
2018-09-12T05:17:52.000Z,8.27
2018-09-12T05:20:22.278Z,6.80
2018-09-12T05:22:52.376Z,5.97
2018-09-12T05:25:22.476Z,10.00
2018-09-12T05:27:52.679Z,6.90
2018-09-12T05:30:22.822Z,8.73
2018-09-12T05:32:52.876Z,8.50
2018-09-12T05:35:23.016Z,7.13
2018-09-12T05:37:53.085Z,8.60
2018-09-12T05:40:23.237Z,7.67
2018-09-12T05:42:53.321Z,6.93
2018-09-12T05:45:23.420Z,6.13
2018-09-12T05:47:53.492Z,7.07
2018-09-12T05:50:23.568Z,7.87
2018-09-12T05:52:53.765Z,7.50
2018-09-12T05:55:23.835Z,6.20
2018-09-12T05:57:53.938Z,7.10
2018-09-12T06:00:24.052Z,7.23
2018-09-12T06:02:54.124Z,10.77
2018-09-12T06:05:24.253Z,7.50
2018-09-12T06:07:54.385Z,10.33
2018-09-12T06:10:24.508Z,6.80
2018-09-12T06:12:54.572Z,6.10
2018-09-12T06:15:24.758Z,6.97
2018-09-12T06:17:54.813Z,7.57
2018-09-12T06:20:24.912Z,9.47
2018-09-12T06:22:55.013Z,12.47
2018-09-12T06:25:25.165Z,8.90
2018-09-12T06:27:55.269Z,8.33
2018-09-12T06:30:25.332Z,9.23
2018-09-12T06:32:55.468Z,11.00
2018-09-12T06:35:25.528Z,7.20
2018-09-12T06:37:55.697Z,7.47
2018-09-12T06:40:25.745Z,7.87
2018-09-12T06:42:55.840Z,13.10
2018-09-12T06:45:25.940Z,9.60
2018-09-12T06:47:56.025Z,11.10
2018-09-12T06:50:26.095Z,8.23
2018-09-12T06:52:56.212Z,9.67
2018-09-12T06:55:26.552Z,9.47
2018-09-12T06:57:56.661Z,7.87
2018-09-12T07:00:26.769Z,10.53
2018-09-12T07:02:56.857Z,9.17
2018-09-12T07:05:26.952Z,9.47
2018-09-12T07:07:57.045Z,11.10
2018-09-12T07:10:27.180Z,7.90
2018-09-12T07:12:57.280Z,10.13
2018-09-12T07:15:27.500Z,7.83
2018-09-12T07:17:57.584Z,8.17
2018-09-12T07:20:27.652Z,8.13
2018-09-12T07:22:57.740Z,8.27
2018-09-12T07:25:28.090Z,9.17
2018-09-12T07:27:58.208Z,6.30
2018-09-12T07:30:28.569Z,7.43
2018-09-12T07:32:58.795Z,6.97
2018-09-12T07:35:28.957Z,6.90
2018-09-12T07:37:59.099Z,5.33
2018-09-12T07:40:29.192Z,7.23
2018-09-12T07:42:59.436Z,6.47
2018-09-12T07:45:29.618Z,5.97
2018-09-12T07:47:59.768Z,5.77
2018-09-12T07:50:29.912Z,10.70
2018-09-12T07:53:00.008Z,14.00
2018-09-12T07:55:30.080Z,14.90
2018-09-12T07:58:00.188Z,14.90
2018-09-12T08:00:30.352Z,12.87
2018-09-12T08:03:00.376Z,11.37
2018-09-12T08:05:30.530Z,10.33
2018-09-12T08:08:00.656Z,6.83
2018-09-12T08:10:30.712Z,8.43
2018-09-12T08:13:00.833Z,5.63
2018-09-12T08:15:30.951Z,7.57
2018-09-12T08:18:01.046Z,8.43
2018-09-12T08:20:31.161Z,5.67
2018-09-12T08:23:01.230Z,9.00
2018-09-12T08:25:31.324Z,6.43
2018-09-12T08:28:01.409Z,9.77
2018-09-12T08:30:31.580Z,8.53
2018-09-12T08:33:01.769Z,24.73
2018-09-12T08:35:31.832Z,20.33
2018-09-12T08:38:01.920Z,18.20
2018-09-12T08:40:32.031Z,24.63
2018-09-12T08:43:02.152Z,22.10
2018-09-12T08:45:32.236Z,10.93
2018-09-12T08:48:02.401Z,7.80
2018-09-12T08:50:32.477Z,8.43
2018-09-12T08:53:02.669Z,7.50
2018-09-12T08:55:32.688Z,5.57
2018-09-12T08:58:02.785Z,6.20
2018-09-12T09:00:35.293Z,7.77
2018-09-12T09:03:06.681Z,6.60
2018-09-12T09:05:36.808Z,6.80
2018-09-12T09:08:06.945Z,8.70
2018-09-12T09:10:37.143Z,10.50
2018-09-12T09:13:07.288Z,10.00
2018-09-12T09:15:37.407Z,8.27
2018-09-12T09:18:07.698Z,7.10
2018-09-12T09:20:37.792Z,6.90
2018-09-12T09:23:10.877Z,9.97
2018-09-12T09:25:40.957Z,6.87
2018-09-12T09:28:11.133Z,8.13
2018-09-12T09:30:41.268Z,8.13
2018-09-12T09:33:17.657Z,18.60
2018-09-12T09:35:47.850Z,9.20
2018-09-12T09:38:17.847Z,9.00
2018-09-12T09:40:48.064Z,14.97
2018-09-12T09:43:18.201Z,8.03
2018-09-12T09:45:48.320Z,7.50
2018-09-12T09:48:18.445Z,8.03
2018-09-12T09:50:48.522Z,7.07
2018-09-12T09:53:18.580Z,7.33
2018-09-12T09:55:48.724Z,6.17
2018-09-12T09:58:18.837Z,7.33
2018-09-12T10:00:54.041Z,6.67
2018-09-12T10:03:29.329Z,11.80
2018-09-12T10:06:04.603Z,8.40
2018-09-12T10:09:40.531Z,7.37
2018-09-12T10:12:10.667Z,8.10
2018-09-12T10:14:40.775Z,7.37
2018-09-12T10:17:10.861Z,6.87
2018-09-12T10:19:40.920Z,6.93
2018-09-12T10:22:11.023Z,8.27
2018-09-12T10:24:41.109Z,6.60
2018-09-12T10:27:11.171Z,6.73
2018-09-12T10:29:41.248Z,7.87
2018-09-12T10:32:11.320Z,6.90
2018-09-12T10:34:43.381Z,7.30
2018-09-12T10:37:15.857Z,7.40
2018-09-12T10:39:45.948Z,8.27
2018-09-12T10:42:16.023Z,6.40
2018-09-12T10:44:46.144Z,6.77
2018-09-12T10:47:16.225Z,8.33
2018-09-12T10:49:46.433Z,7.00
2018-09-12T10:52:16.500Z,7.90
2018-09-12T10:54:46.584Z,6.70
2018-09-12T10:57:16.656Z,8.77
2018-09-12T10:59:46.744Z,7.03
2018-09-12T11:02:16.855Z,7.10
2018-09-12T11:04:46.931Z,7.10
2018-09-12T11:07:17.092Z,7.03
2018-09-12T11:09:47.333Z,6.80
2018-09-12T11:12:17.340Z,7.10
2018-09-12T11:14:47.433Z,6.67
2018-09-12T11:17:17.500Z,7.73
2018-09-12T11:19:47.604Z,6.80
2018-09-12T11:22:17.756Z,8.07
2018-09-12T11:24:47.889Z,5.93
2018-09-12T11:27:17.955Z,6.90
2018-09-12T11:29:48.037Z,6.40
2018-09-12T11:32:18.104Z,5.80
2018-09-12T11:34:48.171Z,8.30
2018-09-12T11:37:18.292Z,8.83
2018-09-12T11:39:48.360Z,7.37
2018-09-12T11:42:18.473Z,6.17
2018-09-12T11:44:48.557Z,8.20
2018-09-12T11:47:18.701Z,6.67
2018-09-12T11:52:49.616Z,7.70
2018-09-12T11:55:19.805Z,7.63
2018-09-12T11:57:49.880Z,7.20
2018-09-12T12:00:20.088Z,7.10
2018-09-12T12:02:50.179Z,8.03
2018-09-12T12:05:20.319Z,6.47
2018-09-12T12:07:50.387Z,6.40
2018-09-12T12:10:20.522Z,6.20
2018-09-12T12:12:50.596Z,8.63
2018-09-12T12:15:20.710Z,6.73
2018-09-12T12:17:51.356Z,9.47
2018-09-12T12:20:21.423Z,5.93
2018-09-12T12:22:51.560Z,6.00
2018-09-12T12:25:21.683Z,5.83
2018-09-12T12:27:51.752Z,6.13
2018-09-12T12:30:21.824Z,6.67
2018-09-12T12:32:51.904Z,7.53
2018-09-12T12:35:22.553Z,7.07
2018-09-12T12:37:53.040Z,5.80
2018-09-12T12:40:23.450Z,6.17
2018-09-12T12:42:53.527Z,6.10
2018-09-12T12:45:23.733Z,6.30
2018-09-12T12:47:53.832Z,6.23
2018-09-12T12:50:23.901Z,6.60
2018-09-12T12:52:53.978Z,6.03
2018-09-12T12:55:24.044Z,6.00
2018-09-12T12:57:54.180Z,6.87
2018-09-12T13:00:24.257Z,6.67
2018-09-12T13:02:54.336Z,7.73
2018-09-12T13:05:24.408Z,7.90
2018-09-12T13:07:54.521Z,6.53
2018-09-12T13:10:24.601Z,6.20
2018-09-12T13:12:54.684Z,7.03
2018-09-12T13:15:24.800Z,6.33
2018-09-12T13:17:55.001Z,5.73
2018-09-12T13:20:25.093Z,5.60
2018-09-12T13:22:55.173Z,5.97
2018-09-12T13:25:25.317Z,6.73
2018-09-12T13:27:55.448Z,6.70
2018-09-12T13:30:25.488Z,6.20
2018-09-12T13:32:55.609Z,6.63
2018-09-12T13:35:25.747Z,6.83
2018-09-12T13:37:55.900Z,6.90
2018-09-12T13:40:25.984Z,7.43
2018-09-12T13:42:56.128Z,6.83
2018-09-12T13:45:26.215Z,7.37
2018-09-12T13:47:56.288Z,6.70
2018-09-12T13:50:26.366Z,6.80
2018-09-12T13:52:56.441Z,6.63
2018-09-12T13:55:26.552Z,6.40
2018-09-12T13:57:56.616Z,7.97
2018-09-12T14:00:30.252Z,6.80
2018-09-12T14:03:02.380Z,6.53
2018-09-12T14:05:33.316Z,7.10
2018-09-12T14:08:03.391Z,6.73
2018-09-12T14:10:33.476Z,6.83
2018-09-12T14:13:03.540Z,8.70
2018-09-12T14:15:33.620Z,6.17
2018-09-12T14:18:03.719Z,6.47
2018-09-12T14:20:33.796Z,6.53
2018-09-12T14:23:03.882Z,6.60
2018-09-12T14:25:34.000Z,7.67
2018-09-12T14:28:04.188Z,6.50
2018-09-12T14:30:34.280Z,6.60
2018-09-12T14:33:04.371Z,6.83
2018-09-12T14:35:34.485Z,8.13
2018-09-12T14:38:04.589Z,6.20
2018-09-12T14:40:34.673Z,6.93
2018-09-12T14:43:04.750Z,6.60
2018-09-12T14:45:34.816Z,6.90
2018-09-12T14:48:04.892Z,6.97
2018-09-12T14:50:34.992Z,7.37
2018-09-12T14:53:05.108Z,7.00
2018-09-12T14:55:35.225Z,6.93
2018-09-12T14:58:05.344Z,7.40
2018-09-12T15:00:35.468Z,7.50
2018-09-12T15:03:05.559Z,6.67
2018-09-12T15:05:35.644Z,6.87
2018-09-12T15:08:05.861Z,6.50
2018-09-12T15:10:35.996Z,6.70
2018-09-12T15:13:06.328Z,6.90
2018-09-12T15:15:36.392Z,6.47
2018-09-12T15:18:06.488Z,6.70
2018-09-12T15:20:36.598Z,7.07
2018-09-12T15:23:07.024Z,6.33
2018-09-12T15:25:37.132Z,7.07
2018-09-12T15:28:07.301Z,8.33
2018-09-12T15:30:37.364Z,7.73
2018-09-12T15:33:07.567Z,7.00
2018-09-12T15:35:37.666Z,7.17
2018-09-12T15:38:07.732Z,6.77
2018-09-12T15:40:37.836Z,6.70
2018-09-12T15:43:07.982Z,6.70
2018-09-12T15:45:38.060Z,7.13
2018-09-12T15:48:08.149Z,6.97
2018-09-12T15:50:38.228Z,7.00
2018-09-12T15:53:08.380Z,7.30
2018-09-12T15:55:38.476Z,7.70
2018-09-12T15:58:08.612Z,7.37
2018-09-12T16:00:38.672Z,7.30
2018-09-12T16:03:08.897Z,8.33
2018-09-12T16:05:38.961Z,7.23
2018-09-12T16:08:09.165Z,7.43
2018-09-12T16:10:39.276Z,7.60
2018-09-12T16:13:09.410Z,7.60
2018-09-12T16:15:39.505Z,8.07
2018-09-12T16:18:09.612Z,7.70
2018-09-12T16:20:39.683Z,7.90
2018-09-12T16:23:09.819Z,7.70
2018-09-12T16:25:39.848Z,8.33
2018-09-12T16:28:09.946Z,8.17
2018-09-12T16:30:40.025Z,7.90
2018-09-12T16:33:10.117Z,7.90
2018-09-12T16:35:40.188Z,7.67
2018-09-12T16:38:10.316Z,8.50
2018-09-12T16:40:40.384Z,8.20
2018-09-12T16:43:10.494Z,8.20
2018-09-12T16:45:40.580Z,7.67
2018-09-12T16:48:10.672Z,8.10
2018-09-12T16:50:40.834Z,8.60
2018-09-12T16:53:10.892Z,7.60
2018-09-12T16:55:40.999Z,9.50
2018-09-12T16:58:11.088Z,8.03
2018-09-12T17:00:41.270Z,8.80
2018-09-12T17:03:11.359Z,9.93
2018-09-12T17:05:42.176Z,8.90
2018-09-12T17:08:12.272Z,8.70
2018-09-12T17:10:42.335Z,8.67
2018-09-12T17:13:12.408Z,9.50
2018-09-12T17:15:42.489Z,8.83
2018-09-12T17:18:12.552Z,9.40
2018-09-12T17:20:42.632Z,8.13
2018-09-12T17:23:12.736Z,12.17
2018-09-12T17:25:42.856Z,16.57
2018-09-12T17:28:12.952Z,32.33
2018-09-12T17:30:43.040Z,10.23
2018-09-12T17:33:13.196Z,37.40
2018-09-12T17:35:43.348Z,29.13
2018-09-12T17:38:13.459Z,32.57
2018-09-12T17:40:43.564Z,13.53
2018-09-12T17:43:13.748Z,13.97
2018-09-12T17:45:43.893Z,13.07
2018-09-12T17:48:14.008Z,14.97
2018-09-12T17:50:44.124Z,13.40
2018-09-12T17:53:14.239Z,13.73
2018-09-12T17:55:44.374Z,12.73
2018-09-12T17:58:14.461Z,11.60
2018-09-12T18:00:44.597Z,11.20
2018-09-12T18:03:14.700Z,11.10
2018-09-12T18:05:44.809Z,11.60
2018-09-12T18:08:14.874Z,9.63
2018-09-12T18:10:45.160Z,11.30
2018-09-12T18:13:15.803Z,9.53
2018-09-12T18:15:45.896Z,10.70
2018-09-12T18:18:15.955Z,9.63
2018-09-12T18:20:47.032Z,10.73
2018-09-12T18:23:17.128Z,10.00
2018-09-12T18:25:47.239Z,10.87
2018-09-12T18:28:17.445Z,12.53
2018-09-12T18:30:47.603Z,10.83
2018-09-12T18:33:17.672Z,12.17
2018-09-12T18:35:47.816Z,10.43
2018-09-12T18:38:17.960Z,11.67
2018-09-12T18:40:48.097Z,12.90
2018-09-12T18:43:18.312Z,13.13
2018-09-12T18:45:48.396Z,11.80
2018-09-12T18:48:18.489Z,13.97
2018-09-12T18:50:48.580Z,10.23
2018-09-12T18:53:18.696Z,9.90
2018-09-12T18:55:48.783Z,11.63
2018-09-12T18:58:18.896Z,11.10
2018-09-12T19:00:48.955Z,32.43
2018-09-12T19:03:19.072Z,32.00
2018-09-12T19:05:49.187Z,17.27
2018-09-12T19:08:19.825Z,13.03
2018-09-12T19:10:50.104Z,18.47
2018-09-12T19:13:20.328Z,15.47
2018-09-12T19:15:50.425Z,15.60
2018-09-12T19:18:20.585Z,14.37
2018-09-12T19:20:50.636Z,14.10
2018-09-12T19:23:20.824Z,12.33
2018-09-12T19:25:50.977Z,12.97
2018-09-12T19:28:21.120Z,14.10
2018-09-12T19:30:51.204Z,162.03
2018-09-12T19:33:21.289Z,197.87
2018-09-12T19:35:51.427Z,57.57
2018-09-12T19:38:21.476Z,68.63
2018-09-12T19:40:51.557Z,58.70
2018-09-12T19:43:21.636Z,39.60
2018-09-12T19:45:51.708Z,31.77
2018-09-12T19:48:21.768Z,28.13
2018-09-12T19:50:51.992Z,33.73
2018-09-12T19:53:22.073Z,84.03
2018-09-12T19:55:52.232Z,147.37
2018-09-12T19:58:22.541Z,43.30
2018-09-12T20:00:52.636Z,23.10
2018-09-12T20:03:22.758Z,89.37
2018-09-12T20:05:52.868Z,26.70
2018-09-12T20:08:23.261Z,27.73
2018-09-12T20:10:53.446Z,21.63
2018-09-12T20:13:23.528Z,19.50
2018-09-12T20:15:53.825Z,16.83
2018-09-12T20:18:23.900Z,18.87
2018-09-12T20:20:54.014Z,17.53
2018-09-12T20:23:24.156Z,15.17
2018-09-12T20:25:54.260Z,19.80
2018-09-12T20:28:24.345Z,16.77
2018-09-12T20:30:54.423Z,18.20
2018-09-12T20:33:24.772Z,13.50
2018-09-12T20:35:55.132Z,16.77
2018-09-12T20:38:25.595Z,16.30
2018-09-12T20:40:55.703Z,15.67
2018-09-12T20:43:25.852Z,13.27
2018-09-12T20:45:55.964Z,11.27
2018-09-12T20:48:26.048Z,12.20
2018-09-12T20:50:56.145Z,17.43
2018-09-12T20:53:26.436Z,12.30
2018-09-12T20:55:56.551Z,14.27
2018-09-12T20:58:26.630Z,13.80
2018-09-12T21:00:56.707Z,12.57
2018-09-12T21:03:26.824Z,12.43
2018-09-12T21:05:56.958Z,11.87
2018-09-12T21:08:27.040Z,16.73
2018-09-12T21:10:57.235Z,13.40
2018-09-12T21:13:27.215Z,12.53
2018-09-12T21:15:57.291Z,12.93
2018-09-12T21:18:27.365Z,13.20
2018-09-12T21:20:57.469Z,37.30
2018-09-12T21:23:27.647Z,17.23
2018-09-12T21:25:57.704Z,17.00
2018-09-12T21:28:27.811Z,18.67
2018-09-12T21:30:57.884Z,16.00
2018-09-12T21:33:28.032Z,13.57
2018-09-12T21:35:58.183Z,18.00
2018-09-12T21:38:28.489Z,16.67
2018-09-12T21:40:58.639Z,13.07
2018-09-12T21:43:28.734Z,12.73
2018-09-12T21:45:58.832Z,11.30
2018-09-12T21:48:28.940Z,13.13
2018-09-12T21:50:59.072Z,15.93
2018-09-12T21:53:29.161Z,14.87
2018-09-12T21:55:59.273Z,12.30
2018-09-12T21:58:29.355Z,11.57
2018-09-12T22:00:59.880Z,12.83
2018-09-12T22:03:30.440Z,15.30
2018-09-12T22:06:00.530Z,11.77
2018-09-12T22:08:30.621Z,12.67
2018-09-12T22:11:00.683Z,14.20
2018-09-12T22:13:30.777Z,12.27
2018-09-12T22:16:00.869Z,25.03
2018-09-12T22:18:30.940Z,89.43
2018-09-12T22:21:01.012Z,18.63
2018-09-12T22:23:31.080Z,15.23
2018-09-12T22:26:01.176Z,16.00
2018-09-12T22:28:31.351Z,15.93
2018-09-12T22:31:01.533Z,18.97
2018-09-12T22:33:31.623Z,14.53
2018-09-12T22:36:01.742Z,22.27
2018-09-12T22:38:31.828Z,14.53
2018-09-12T22:41:01.938Z,12.97
2018-09-12T22:43:32.052Z,12.73
2018-09-12T22:46:02.212Z,12.90
2018-09-12T22:48:32.344Z,12.70
2018-09-12T22:51:02.552Z,11.37
2018-09-12T22:53:32.611Z,11.60
2018-09-12T22:56:02.751Z,14.83
2018-09-12T22:58:32.889Z,13.43
2018-09-12T23:01:02.980Z,35.63
2018-09-12T23:03:33.088Z,28.43
2018-09-12T23:06:03.285Z,16.90
2018-09-12T23:08:33.427Z,17.53
2018-09-12T23:11:03.559Z,21.53
2018-09-12T23:13:33.651Z,21.03
2018-09-12T23:16:03.775Z,18.13
2018-09-12T23:18:33.864Z,20.27
2018-09-12T23:21:03.989Z,15.43
2018-09-12T23:23:34.064Z,15.23
2018-09-12T23:26:04.197Z,13.63
2018-09-12T23:28:34.296Z,12.30
2018-09-12T23:31:04.384Z,12.70
2018-09-12T23:33:34.525Z,15.77
2018-09-12T23:36:04.620Z,12.73
2018-09-12T23:38:34.703Z,11.63
2018-09-12T23:41:04.861Z,12.97
2018-09-12T23:43:34.934Z,12.00
2018-09-12T23:46:05.176Z,13.00
2018-09-12T23:48:35.257Z,11.60
2018-09-12T23:51:05.804Z,10.60
2018-09-12T23:53:35.863Z,11.90
2018-09-12T23:56:06.100Z,11.03
2018-09-12T23:58:36.191Z,11.27
